^^
Station Historical Data
Daily Summary for March 9, 2018 Units:  Metric    English   Both
« Previous Day
Next Day »
Daily Weekly Monthly Yearly Custom
  High: Low: Average:
Temperature: -17.8 °C 6.7 °C 13 °C
Dew Point: -17.8 °C -9.8 °C -1.1 °C
Humidity: Humidity% 12% 45%
Wind Speed: 0km/h 0km/h 0km/h
Wind Gust: 0km/h - -
Wind- - North
Pressure: 0 hPa 1019.5 hPa -
Precipitation: 0 mm    
Historical Graphs
 
 
Tabular Data for March 9, 2018
Time Temperature Dew Point Pressure Wind Wind Speed Wind Gust Humidity Rainfall Rate (Hourly) solar Conditions
-17.8 °C -17.8 °C 0 hPa Calm     Humidity% 0 mm SolarRadiationWatts/m^2 W/m2 Conditions
00:02 10 °C 3.3 °C 1020.2 hPa Calm     63% 0 mm 0.0 W/m2 CLR
00:07 10 °C 3.3 °C 1020.2 hPa Calm     63% 0 mm 0.0 W/m2 CLR
00:12 10 °C 3.3 °C 1020.2 hPa Calm     63% 0 mm 0.0 W/m2 CLR
00:17 10 °C 3.3 °C 1020.2 hPa Calm     63% 0 mm 0.0 W/m2 CLR
00:22 10 °C 3.3 °C 1020.2 hPa Calm     63% 0 mm 0.0 W/m2 CLR
00:27 10 °C 3.3 °C 1020.2 hPa Calm     63% 0 mm 0.0 W/m2 CLR
00:32 10 °C 3.3 °C 1020.2 hPa Calm     63% 0 mm 0.0 W/m2 CLR
00:37 10 °C 3.3 °C 1020.2 hPa Calm     63% 0 mm 0.0 W/m2 CLR
00:42 10 °C 3.3 °C 1020.2 hPa Calm     63% 0 mm 0.0 W/m2 CLR
00:47 10 °C 3.3 °C 1020.2 hPa Calm     63% 0 mm 0.0 W/m2 CLR
00:52 10 °C 3.3 °C 1020.2 hPa Calm     63% 0 mm 0.0 W/m2 CLR
00:57 10 °C 3.3 °C 1020.2 hPa Calm     63% 0 mm 0.0 W/m2 CLR
01:02 9.4 °C 3.8 °C 1019.9 hPa Calm     68% 0 mm 0.0 W/m2 CLR
01:07 9.4 °C 3.8 °C 1019.9 hPa Calm     68% 0 mm 0.0 W/m2 CLR
01:12 9.4 °C 3.8 °C 1019.9 hPa Calm     68% 0 mm 0.0 W/m2 CLR
01:17 9.4 °C 3.8 °C 1019.9 hPa Calm     68% 0 mm 0.0 W/m2 CLR
01:24 9.4 °C 3.8 °C 1019.9 hPa Calm     68% 0 mm 0.0 W/m2 CLR
01:29 9.4 °C 3.8 °C 1019.9 hPa Calm     68% 0 mm 0.0 W/m2 CLR
01:34 9.4 °C 3.8 °C 1019.9 hPa Calm     68% 0 mm 0.0 W/m2 CLR
01:39 9.4 °C 3.8 °C 1019.9 hPa Calm     68% 0 mm 0.0 W/m2 CLR
01:44 9.4 °C 3.8 °C 1019.9 hPa Calm     68% 0 mm 0.0 W/m2 CLR
01:49 9.4 °C 3.8 °C 1019.9 hPa Calm     68% 0 mm 0.0 W/m2 CLR
01:54 9.4 °C 3.8 °C 1019.9 hPa Calm     68% 0 mm 0.0 W/m2 CLR
01:59 9.4 °C 3.8 °C 1019.9 hPa Calm     68% 0 mm 0.0 W/m2 CLR
02:04 8.9 °C 3.7 °C 1019.9 hPa Calm     70% 0 mm 0.0 W/m2 CLR
02:09 8.9 °C 3.7 °C 1019.9 hPa Calm     70% 0 mm 0.0 W/m2 CLR
02:14 8.9 °C 3.7 °C 1019.9 hPa Calm     70% 0 mm 0.0 W/m2 CLR
02:19 8.9 °C 3.7 °C 1019.9 hPa Calm     70% 0 mm 0.0 W/m2 CLR
02:24 8.9 °C 3.7 °C 1019.9 hPa Calm     70% 0 mm 0.0 W/m2 CLR
02:29 8.9 °C 3.7 °C 1019.9 hPa Calm     70% 0 mm 0.0 W/m2 CLR
02:34 8.9 °C 3.7 °C 1019.9 hPa Calm     70% 0 mm 0.0 W/m2 CLR
02:39 8.9 °C 3.7 °C 1019.9 hPa Calm     70% 0 mm 0.0 W/m2 CLR
02:44 8.9 °C 3.7 °C 1019.9 hPa Calm     70% 0 mm 0.0 W/m2 CLR
02:49 8.9 °C 3.7 °C 1019.9 hPa Calm     70% 0 mm 0.0 W/m2 CLR
02:54 8.9 °C 3.7 °C 1019.9 hPa Calm     70% 0 mm 0.0 W/m2 CLR
02:59 8.9 °C 3.7 °C 1019.9 hPa Calm     70% 0 mm 0.0 W/m2 CLR
03:04 8.9 °C 4.3 °C 1019.9 hPa Calm     73% 0 mm 0.0 W/m2 CLR
03:09 8.9 °C 4.3 °C 1019.9 hPa Calm     73% 0 mm 0.0 W/m2 CLR
03:14 8.9 °C 4.3 °C 1019.9 hPa Calm     73% 0 mm 0.0 W/m2 CLR
03:19 8.9 °C 4.3 °C 1019.9 hPa Calm     73% 0 mm 0.0 W/m2 CLR
03:24 8.9 °C 4.3 °C 1019.9 hPa Calm     73% 0 mm 0.0 W/m2 CLR
03:29 8.9 °C 4.3 °C 1019.9 hPa Calm     73% 0 mm 0.0 W/m2 CLR
03:34 8.9 °C 4.3 °C 1019.9 hPa Calm     73% 0 mm 0.0 W/m2 CLR
03:39 8.9 °C 4.3 °C 1019.9 hPa Calm     73% 0 mm 0.0 W/m2 CLR
03:44 8.9 °C 4.3 °C 1019.9 hPa Calm     73% 0 mm 0.0 W/m2 CLR
03:49 8.9 °C 4.3 °C 1019.9 hPa Calm     73% 0 mm 0.0 W/m2 CLR
03:54 8.9 °C 4.3 °C 1019.9 hPa Calm     73% 0 mm 0.0 W/m2 CLR
03:59 8.9 °C 4.3 °C 1019.9 hPa Calm     73% 0 mm 0.0 W/m2 CLR
04:04 8.3 °C 3.7 °C 1020.2 hPa Calm     73% 0 mm 0.0 W/m2 CLR
04:09 8.3 °C 3.7 °C 1020.2 hPa Calm     73% 0 mm 0.0 W/m2 CLR
04:14 8.3 °C 3.7 °C 1020.2 hPa Calm     73% 0 mm 0.0 W/m2 CLR
04:19 8.3 °C 3.7 °C 1020.2 hPa Calm     73% 0 mm 0.0 W/m2 CLR
04:24 8.3 °C 3.7 °C 1020.2 hPa Calm     73% 0 mm 0.0 W/m2 CLR
04:29 8.3 °C 3.7 °C 1020.2 hPa Calm     73% 0 mm 0.0 W/m2 CLR
04:34 8.3 °C 3.7 °C 1020.2 hPa Calm     73% 0 mm 0.0 W/m2 CLR
04:39 8.3 °C 3.7 °C 1020.2 hPa Calm     73% 0 mm 0.0 W/m2 CLR
04:44 8.3 °C 3.7 °C 1020.2 hPa Calm     73% 0 mm 0.0 W/m2 CLR
04:49 8.3 °C 3.7 °C 1020.2 hPa Calm     73% 0 mm 0.0 W/m2 CLR
04:54 8.3 °C 3.7 °C 1020.2 hPa Calm     73% 0 mm 0.0 W/m2 CLR
04:59 8.3 °C 3.7 °C 1020.2 hPa Calm     73% 0 mm 0.0 W/m2 CLR
05:04 6.7 °C 1.6 °C 1020.5 hPa Calm     70% 0 mm 0.0 W/m2 CLR
05:09 6.7 °C 1.6 °C 1020.5 hPa Calm     70% 0 mm 0.0 W/m2 CLR
05:14 6.7 °C 1.6 °C 1020.5 hPa Calm     70% 0 mm 0.0 W/m2 CLR
05:19 6.7 °C 1.6 °C 1020.5 hPa Calm     70% 0 mm 0.0 W/m2 CLR
05:24 6.7 °C 1.6 °C 1020.5 hPa Calm     70% 0 mm 0.0 W/m2 CLR
05:29 6.7 °C 1.6 °C 1020.5 hPa Calm     70% 0 mm 0.0 W/m2 CLR
05:34 6.7 °C 1.6 °C 1020.5 hPa Calm     70% 0 mm 0.0 W/m2 CLR
05:39 6.7 °C 1.6 °C 1020.5 hPa Calm     70% 0 mm 0.0 W/m2 CLR
05:44 6.7 °C 1.6 °C 1020.5 hPa Calm     70% 0 mm 0.0 W/m2 CLR
05:49 6.7 °C 1.6 °C 1020.5 hPa Calm     70% 0 mm 0.0 W/m2 CLR
05:54 6.7 °C 1.6 °C 1020.5 hPa Calm     70% 0 mm 0.0 W/m2 CLR
05:59 6.7 °C 1.6 °C 1020.5 hPa Calm     70% 0 mm 0.0 W/m2 CLR
06:04 6.7 °C -0.8 °C 1021.2 hPa Calm     59% 0 mm 0.0 W/m2 CLR
06:09 6.7 °C -0.8 °C 1021.2 hPa Calm     59% 0 mm 0.0 W/m2 CLR
06:14 6.7 °C -0.8 °C 1021.2 hPa Calm     59% 0 mm 0.0 W/m2 CLR
06:19 6.7 °C -0.8 °C 1021.2 hPa Calm     59% 0 mm 0.0 W/m2 CLR
06:24 6.7 °C -0.8 °C 1021.2 hPa Calm     59% 0 mm 0.0 W/m2 CLR
06:29 6.7 °C -0.8 °C 1021.2 hPa Calm     59% 0 mm 0.0 W/m2 CLR
06:34 6.7 °C -0.8 °C 1021.2 hPa Calm     59% 0 mm 0.0 W/m2 CLR
06:39 6.7 °C -0.8 °C 1021.2 hPa Calm     59% 0 mm 0.0 W/m2 CLR
06:44 6.7 °C -0.8 °C 1021.2 hPa Calm     59% 0 mm 0.0 W/m2 CLR
06:49 6.7 °C -0.8 °C 1021.2 hPa Calm     59% 0 mm 0.0 W/m2 CLR
06:54 6.7 °C -0.8 °C 1021.2 hPa Calm     59% 0 mm 0.0 W/m2 CLR
06:59 6.7 °C -0.8 °C 1021.2 hPa Calm     59% 0 mm 0.0 W/m2 CLR
07:04 6.7 °C 0.6 °C 1021.6 hPa Calm     65% 0 mm 0.0 W/m2 CLR
07:09 6.7 °C 0.6 °C 1021.6 hPa Calm     65% 0 mm 0.0 W/m2 CLR
07:14 6.7 °C 0.6 °C 1021.6 hPa Calm     65% 0 mm 0.0 W/m2 CLR
07:19 6.7 °C 0.6 °C 1021.6 hPa Calm     65% 0 mm 0.0 W/m2 CLR
07:24 6.7 °C 0.6 °C 1021.6 hPa Calm     65% 0 mm 0.0 W/m2 CLR
07:29 6.7 °C 0.6 °C 1021.6 hPa Calm     65% 0 mm 0.0 W/m2 CLR
07:34 6.7 °C 0.6 °C 1021.6 hPa Calm     65% 0 mm 0.0 W/m2 CLR
07:39 6.7 °C 0.6 °C 1021.6 hPa Calm     65% 0 mm 0.0 W/m2 CLR
07:44 6.7 °C 0.6 °C 1021.6 hPa Calm     65% 0 mm 0.0 W/m2 CLR
07:49 6.7 °C 0.6 °C 1021.6 hPa Calm     65% 0 mm 0.0 W/m2 CLR
07:54 6.7 °C 0.6 °C 1021.6 hPa Calm     65% 0 mm 0.0 W/m2 CLR
07:59 6.7 °C 0.6 °C 1021.6 hPa Calm     65% 0 mm 0.0 W/m2 CLR
08:04 10 °C -0.8 °C 1022.2 hPa Calm     47% 0 mm 0.0 W/m2 CLR
08:09 10 °C -0.8 °C 1022.2 hPa Calm     47% 0 mm 0.0 W/m2 CLR
08:14 10 °C -0.8 °C 1022.2 hPa Calm     47% 0 mm 0.0 W/m2 CLR
08:19 10 °C -0.8 °C 1022.2 hPa Calm     47% 0 mm 0.0 W/m2 CLR
08:24 10 °C -0.8 °C 1022.2 hPa Calm     47% 0 mm 0.0 W/m2 CLR
08:29 10 °C -0.8 °C 1022.2 hPa Calm     47% 0 mm 0.0 W/m2 CLR
08:34 10 °C -0.8 °C 1022.2 hPa Calm     47% 0 mm 0.0 W/m2 CLR
08:39 10 °C -0.8 °C 1022.2 hPa Calm     47% 0 mm 0.0 W/m2 CLR
08:44 10 °C -0.8 °C 1022.2 hPa Calm     47% 0 mm 0.0 W/m2 CLR
08:49 10 °C -0.8 °C 1022.2 hPa Calm     47% 0 mm 0.0 W/m2 CLR
08:54 10 °C -0.8 °C 1022.2 hPa Calm     47% 0 mm 0.0 W/m2 CLR
08:59 10 °C -0.8 °C 1022.2 hPa Calm     47% 0 mm 0.0 W/m2 CLR
09:04 12.2 °C -2.8 °C 1022.2 hPa Calm     35% 0 mm 0.0 W/m2 CLR
09:09 12.2 °C -2.8 °C 1022.2 hPa Calm     35% 0 mm 0.0 W/m2 CLR
09:14 12.2 °C -2.8 °C 1022.2 hPa Calm     35% 0 mm 0.0 W/m2 CLR
09:19 12.2 °C -2.8 °C 1022.2 hPa Calm     35% 0 mm 0.0 W/m2 CLR
09:24 12.2 °C -2.8 °C 1022.2 hPa Calm     35% 0 mm 0.0 W/m2 CLR
09:29 12.2 °C -2.8 °C 1022.2 hPa Calm     35% 0 mm 0.0 W/m2 CLR
09:34 12.2 °C -2.8 °C 1022.2 hPa Calm     35% 0 mm 0.0 W/m2 CLR
09:39 12.2 °C -2.8 °C 1022.2 hPa Calm     35% 0 mm 0.0 W/m2 CLR
09:44 12.2 °C -2.8 °C 1022.2 hPa Calm     35% 0 mm 0.0 W/m2 CLR
09:49 12.2 °C -2.8 °C 1022.2 hPa Calm     35% 0 mm 0.0 W/m2 CLR
09:54 12.2 °C -2.8 °C 1022.2 hPa Calm     35% 0 mm 0.0 W/m2 CLR
09:59 12.2 °C -2.8 °C 1022.2 hPa Calm     35% 0 mm 0.0 W/m2 CLR
10:04 14.4 °C -4.9 °C 1022.9 hPa Calm     26% 0 mm 0.0 W/m2 CLR
10:09 14.4 °C -4.9 °C 1022.9 hPa Calm     26% 0 mm 0.0 W/m2 CLR
10:14 14.4 °C -4.9 °C 1022.9 hPa Calm     26% 0 mm 0.0 W/m2 CLR
10:19 14.4 °C -4.9 °C 1022.9 hPa Calm     26% 0 mm 0.0 W/m2 CLR
10:24 14.4 °C -4.9 °C 1022.9 hPa Calm     26% 0 mm 0.0 W/m2 CLR
10:29 14.4 °C -4.9 °C 1022.9 hPa Calm     26% 0 mm 0.0 W/m2 CLR
10:34 14.4 °C -4.9 °C 1022.9 hPa Calm     26% 0 mm 0.0 W/m2 CLR
10:39 14.4 °C -4.9 °C 1022.9 hPa Calm     26% 0 mm 0.0 W/m2 CLR
10:44 14.4 °C -4.9 °C 1022.9 hPa Calm     26% 0 mm 0.0 W/m2 CLR
10:49 14.4 °C -4.9 °C 1022.9 hPa Calm     26% 0 mm 0.0 W/m2 CLR
10:54 14.4 °C -4.9 °C 1022.9 hPa Calm     26% 0 mm 0.0 W/m2 CLR
10:59 14.4 °C -4.9 °C 1022.9 hPa Calm     26% 0 mm 0.0 W/m2 CLR
11:04 15.6 °C -4.9 °C 1022.9 hPa Calm     24% 0 mm 0.0 W/m2 CLR
11:09 15.6 °C -4.9 °C 1022.9 hPa Calm     24% 0 mm 0.0 W/m2 CLR
11:14 15.6 °C -4.9 °C 1022.9 hPa Calm     24% 0 mm 0.0 W/m2 CLR
11:19 15.6 °C -4.9 °C 1022.9 hPa Calm     24% 0 mm 0.0 W/m2 CLR
11:24 15.6 °C -4.9 °C 1022.9 hPa Calm     24% 0 mm 0.0 W/m2 CLR
11:29 15.6 °C -4.9 °C 1022.9 hPa Calm     24% 0 mm 0.0 W/m2 CLR
11:34 15.6 °C -4.9 °C 1022.9 hPa Calm     24% 0 mm 0.0 W/m2 CLR
11:39 15.6 °C -4.9 °C 1022.9 hPa Calm     24% 0 mm 0.0 W/m2 CLR
11:44 15.6 °C -4.9 °C 1022.9 hPa Calm     24% 0 mm 0.0 W/m2 CLR
11:49 15.6 °C -4.9 °C 1022.9 hPa Calm     24% 0 mm 0.0 W/m2 CLR
11:54 15.6 °C -4.9 °C 1022.9 hPa Calm     24% 0 mm 0.0 W/m2 CLR
11:59 15.6 °C -4.9 °C 1022.9 hPa Calm     24% 0 mm 0.0 W/m2 CLR
12:04 16.7 °C -5.2 °C 1022.2 hPa Calm     22% 0 mm 0.0 W/m2 CLR
12:09 16.7 °C -5.2 °C 1022.2 hPa Calm     22% 0 mm 0.0 W/m2 CLR
12:14 16.7 °C -5.2 °C 1022.2 hPa Calm     22% 0 mm 0.0 W/m2 CLR
12:19 16.7 °C -5.2 °C 1022.2 hPa Calm     22% 0 mm 0.0 W/m2 CLR
12:24 16.7 °C -5.2 °C 1022.2 hPa Calm     22% 0 mm 0.0 W/m2 CLR
12:29 16.7 °C -5.2 °C 1022.2 hPa Calm     22% 0 mm 0.0 W/m2 CLR
12:34 16.7 °C -5.2 °C 1022.2 hPa Calm     22% 0 mm 0.0 W/m2 CLR
12:39 16.7 °C -5.2 °C 1022.2 hPa Calm     22% 0 mm 0.0 W/m2 CLR
12:44 16.7 °C -5.2 °C 1022.2 hPa Calm     22% 0 mm 0.0 W/m2 CLR
12:49 16.7 °C -5.2 °C 1022.2 hPa Calm     22% 0 mm 0.0 W/m2 CLR
12:54 16.7 °C -5.2 °C 1022.2 hPa Calm     22% 0 mm 0.0 W/m2 CLR
12:59 16.7 °C -5.2 °C 1022.2 hPa Calm     22% 0 mm 0.0 W/m2 CLR
13:04 18.3 °C -8 °C 1021.2 hPa Calm     16% 0 mm 0.0 W/m2 CLR
13:09 18.3 °C -8 °C 1021.2 hPa Calm     16% 0 mm 0.0 W/m2 CLR
13:14 18.3 °C -8 °C 1021.2 hPa Calm     16% 0 mm 0.0 W/m2 CLR
13:19 18.3 °C -8 °C 1021.2 hPa Calm     16% 0 mm 0.0 W/m2 CLR
13:24 18.3 °C -8 °C 1021.2 hPa Calm     16% 0 mm 0.0 W/m2 CLR
13:29 18.3 °C -8 °C 1021.2 hPa Calm     16% 0 mm 0.0 W/m2 CLR
13:34 18.3 °C -8 °C 1021.2 hPa Calm     16% 0 mm 0.0 W/m2 CLR
13:39 18.3 °C -8 °C 1021.2 hPa Calm     16% 0 mm 0.0 W/m2 CLR
13:44 18.3 °C -8 °C 1021.2 hPa Calm     16% 0 mm 0.0 W/m2 CLR
13:49 18.3 °C -8 °C 1021.2 hPa Calm     16% 0 mm 0.0 W/m2 CLR
13:54 18.3 °C -8 °C 1021.2 hPa Calm     16% 0 mm 0.0 W/m2 CLR
13:59 18.3 °C -8 °C 1021.2 hPa Calm     16% 0 mm 0.0 W/m2 CLR
14:04 18.9 °C -9.2 °C 1020.2 hPa Calm     14% 0 mm 0.0 W/m2 CLR
14:09 18.9 °C -9.2 °C 1020.2 hPa Calm     14% 0 mm 0.0 W/m2 CLR
14:14 18.9 °C -9.2 °C 1020.2 hPa Calm     14% 0 mm 0.0 W/m2 CLR
14:19 18.9 °C -9.2 °C 1020.2 hPa Calm     14% 0 mm 0.0 W/m2 CLR
14:24 18.9 °C -9.2 °C 1020.2 hPa Calm     14% 0 mm 0.0 W/m2 CLR
14:29 18.9 °C -9.2 °C 1020.2 hPa Calm     14% 0 mm 0.0 W/m2 CLR
14:34 18.9 °C -9.2 °C 1020.2 hPa Calm     14% 0 mm 0.0 W/m2 CLR
14:39 18.9 °C -9.2 °C 1020.2 hPa Calm     14% 0 mm 0.0 W/m2 CLR
14:44 18.9 °C -9.2 °C 1020.2 hPa Calm     14% 0 mm 0.0 W/m2 CLR
14:49 18.9 °C -9.2 °C 1020.2 hPa Calm     14% 0 mm 0.0 W/m2 CLR
14:54 18.9 °C -9.2 °C 1020.2 hPa Calm     14% 0 mm 0.0 W/m2 CLR
14:59 18.9 °C -9.2 °C 1020.2 hPa Calm     14% 0 mm 0.0 W/m2 CLR
15:04 20.6 °C -9.8 °C 1019.9 hPa Calm     12% 0 mm 0.0 W/m2 CLR
15:09 20.6 °C -9.8 °C 1019.9 hPa Calm     12% 0 mm 0.0 W/m2 CLR
15:14 20.6 °C -9.8 °C 1019.9 hPa Calm     12% 0 mm 0.0 W/m2 CLR
15:19 20.6 °C -9.8 °C 1019.9 hPa Calm     12% 0 mm 0.0 W/m2 CLR
15:24 20.6 °C -9.8 °C 1019.9 hPa Calm     12% 0 mm 0.0 W/m2 CLR
15:29 20.6 °C -9.8 °C 1019.9 hPa Calm     12% 0 mm 0.0 W/m2 CLR
15:34 20.6 °C -9.8 °C 1019.9 hPa Calm     12% 0 mm 0.0 W/m2 CLR
15:39 20.6 °C -9.8 °C 1019.9 hPa Calm     12% 0 mm 0.0 W/m2 CLR
15:44 20.6 °C -9.8 °C 1019.9 hPa Calm     12% 0 mm 0.0 W/m2 CLR
15:49 20.6 °C -9.8 °C 1019.9 hPa Calm     12% 0 mm 0.0 W/m2 CLR
15:54 20.6 °C -9.8 °C 1019.9 hPa Calm     12% 0 mm 0.0 W/m2 CLR
15:59 20.6 °C -9.8 °C 1019.9 hPa Calm     12% 0 mm 0.0 W/m2 CLR
16:04 21.1 °C -9.4 °C 1019.5 hPa Calm     12% 0 mm 0.0 W/m2 CLR
16:09 21.1 °C -9.4 °C 1019.5 hPa Calm     12% 0 mm 0.0 W/m2 CLR
16:14 21.1 °C -9.4 °C 1019.5 hPa Calm     12% 0 mm 0.0 W/m2 CLR
16:19 21.1 °C -9.4 °C 1019.5 hPa Calm     12% 0 mm 0.0 W/m2 CLR
16:24 21.1 °C -9.4 °C 1019.5 hPa Calm     12% 0 mm 0.0 W/m2 CLR
16:29 21.1 °C -9.4 °C 1019.5 hPa Calm     12% 0 mm 0.0 W/m2 CLR
16:34 21.1 °C -9.4 °C 1019.5 hPa Calm     12% 0 mm 0.0 W/m2 CLR
16:39 21.1 °C -9.4 °C 1019.5 hPa Calm     12% 0 mm 0.0 W/m2 CLR
16:44 21.1 °C -9.4 °C 1019.5 hPa Calm     12% 0 mm 0.0 W/m2 CLR
16:49 21.1 °C -9.4 °C 1019.5 hPa Calm     12% 0 mm 0.0 W/m2 CLR
16:54 21.1 °C -9.4 °C 1019.5 hPa Calm     12% 0 mm 0.0 W/m2 CLR
16:59 21.1 °C -9.4 °C 1019.5 hPa Calm     12% 0 mm 0.0 W/m2 CLR
17:04 20 °C -9.3 °C 1019.5 hPa Calm     13% 0 mm 0.0 W/m2 CLR
17:09 20 °C -9.3 °C 1019.5 hPa Calm     13% 0 mm 0.0 W/m2 CLR
17:14 20 °C -9.3 °C 1019.5 hPa Calm     13% 0 mm 0.0 W/m2 CLR
17:19 20 °C -9.3 °C 1019.5 hPa Calm     13% 0 mm 0.0 W/m2 CLR
17:24 20 °C -9.3 °C 1019.5 hPa Calm     13% 0 mm 0.0 W/m2 CLR
17:29 20 °C -9.3 °C 1019.5 hPa Calm     13% 0 mm 0.0 W/m2 CLR
17:34 20 °C -9.3 °C 1019.5 hPa Calm     13% 0 mm 0.0 W/m2 CLR
17:39 20 °C -9.3 °C 1019.5 hPa Calm     13% 0 mm 0.0 W/m2 CLR
17:44 20 °C -9.3 °C 1019.5 hPa Calm     13% 0 mm 0.0 W/m2 CLR
17:49 20 °C -9.3 °C 1019.5 hPa Calm     13% 0 mm 0.0 W/m2 CLR
17:54 20 °C -9.3 °C 1019.5 hPa Calm     13% 0 mm 0.0 W/m2 CLR
17:59 20 °C -9.3 °C 1019.5 hPa Calm     13% 0 mm 0.0 W/m2 CLR
18:04 18.3 °C 1.3 °C 1020.5 hPa Calm     32% 0 mm 0.0 W/m2 CLR
18:09 18.3 °C 1.3 °C 1020.5 hPa Calm     32% 0 mm 0.0 W/m2 CLR
18:14 18.3 °C 1.3 °C 1020.5 hPa Calm     32% 0 mm 0.0 W/m2 CLR
18:19 18.3 °C 1.3 °C 1020.5 hPa Calm     32% 0 mm 0.0 W/m2 CLR
18:24 18.3 °C 1.3 °C 1020.5 hPa Calm     32% 0 mm 0.0 W/m2 CLR
18:29 18.3 °C 1.3 °C 1020.5 hPa Calm     32% 0 mm 0.0 W/m2 CLR
18:34 18.3 °C 1.3 °C 1020.5 hPa Calm     32% 0 mm 0.0 W/m2 CLR
18:39 18.3 °C 1.3 °C 1020.5 hPa Calm     32% 0 mm 0.0 W/m2 CLR
18:44 18.3 °C 1.3 °C 1020.5 hPa Calm     32% 0 mm 0.0 W/m2 CLR
18:49 18.3 °C 1.3 °C 1020.5 hPa Calm     32% 0 mm 0.0 W/m2 CLR
18:54 18.3 °C 1.3 °C 1020.5 hPa Calm     32% 0 mm 0.0 W/m2 CLR
18:59 18.3 °C 1.3 °C 1020.5 hPa Calm     32% 0 mm 0.0 W/m2 CLR
19:04 15.6 °C 2.7 °C 1020.9 hPa Calm     42% 0 mm 0.0 W/m2 CLR
19:09 15.6 °C 2.7 °C 1020.9 hPa Calm     42% 0 mm 0.0 W/m2 CLR
19:14 15.6 °C 2.7 °C 1020.9 hPa Calm     42% 0 mm 0.0 W/m2 CLR
19:19 15.6 °C 2.7 °C 1020.9 hPa Calm     42% 0 mm 0.0 W/m2 CLR
19:24 15.6 °C 2.7 °C 1020.9 hPa Calm     42% 0 mm 0.0 W/m2 CLR
19:29 15.6 °C 2.7 °C 1020.9 hPa Calm     42% 0 mm 0.0 W/m2 CLR
19:34 15.6 °C 2.7 °C 1020.9 hPa Calm     42% 0 mm 0.0 W/m2 CLR
19:39 15.6 °C 2.7 °C 1020.9 hPa Calm     42% 0 mm 0.0 W/m2 CLR
19:44 15.6 °C 2.7 °C 1020.9 hPa Calm     42% 0 mm 0.0 W/m2 CLR
19:49 15.6 °C 2.7 °C 1020.9 hPa Calm     42% 0 mm 0.0 W/m2 CLR
19:54 15.6 °C 2.7 °C 1020.9 hPa Calm     42% 0 mm 0.0 W/m2 CLR
19:59 15.6 °C 2.7 °C 1020.9 hPa Calm     42% 0 mm 0.0 W/m2 CLR
20:04 13.9 °C 3.6 °C 1020.9 hPa Calm     50% 0 mm 0.0 W/m2 CLR
20:09 13.9 °C 3.6 °C 1020.9 hPa Calm     50% 0 mm 0.0 W/m2 CLR
20:14 13.9 °C 3.6 °C 1020.9 hPa Calm     50% 0 mm 0.0 W/m2 CLR
20:19 13.9 °C 3.6 °C 1020.9 hPa Calm     50% 0 mm 0.0 W/m2 CLR
20:24 13.9 °C 3.6 °C 1020.9 hPa Calm     50% 0 mm 0.0 W/m2 CLR
20:29 13.9 °C 3.6 °C 1020.9 hPa Calm     50% 0 mm 0.0 W/m2 CLR
20:34 13.9 °C 3.6 °C 1020.9 hPa Calm     50% 0 mm 0.0 W/m2 CLR
20:39 13.9 °C 3.6 °C 1020.9 hPa Calm     50% 0 mm 0.0 W/m2 CLR
20:44 13.9 °C 3.6 °C 1020.9 hPa Calm     50% 0 mm 0.0 W/m2 CLR
20:49 13.9 °C 3.6 °C 1020.9 hPa Calm     50% 0 mm 0.0 W/m2 CLR
20:54 13.9 °C 3.6 °C 1020.9 hPa Calm     50% 0 mm 0.0 W/m2 CLR
20:55 13.9 °C 3.6 °C 1020.9 hPa Calm     50% 0 mm 0.0 W/m2 CLR
21:00 13.9 °C 3.6 °C 1020.9 hPa Calm     50% 0 mm 0.0 W/m2 CLR
21:05 12.2 °C 3.7 °C 1021.2 hPa Calm     56% 0 mm 0.0 W/m2 CLR
21:10 12.2 °C 3.7 °C 1021.2 hPa Calm     56% 0 mm 0.0 W/m2 CLR
21:15 12.2 °C 3.7 °C 1021.2 hPa Calm     56% 0 mm 0.0 W/m2 CLR
21:20 12.2 °C 3.7 °C 1021.2 hPa Calm     56% 0 mm 0.0 W/m2 CLR
21:25 12.2 °C 3.7 °C 1021.2 hPa Calm     56% 0 mm 0.0 W/m2 CLR
21:30 12.2 °C 3.7 °C 1021.2 hPa Calm     56% 0 mm 0.0 W/m2 CLR
21:35 12.2 °C 3.7 °C 1021.2 hPa Calm     56% 0 mm 0.0 W/m2 CLR
21:40 12.2 °C 3.7 °C 1021.2 hPa Calm     56% 0 mm 0.0 W/m2 CLR
21:45 12.2 °C 3.7 °C 1021.2 hPa Calm     56% 0 mm 0.0 W/m2 CLR
21:50 12.2 °C 3.7 °C 1021.2 hPa Calm     56% 0 mm 0.0 W/m2 CLR
21:55 12.2 °C 3.7 °C 1021.2 hPa Calm     56% 0 mm 0.0 W/m2 CLR
22:00 12.2 °C 3.7 °C 1021.2 hPa Calm     56% 0 mm 0.0 W/m2 CLR
22:05 10.6 °C 4.3 °C 1021.2 hPa Calm     65% 0 mm 0.0 W/m2 CLR
22:10 10.6 °C 4.3 °C 1021.2 hPa Calm     65% 0 mm 0.0 W/m2 CLR
22:15 10.6 °C 4.3 °C 1021.2 hPa Calm     65% 0 mm 0.0 W/m2 CLR
22:20 10.6 °C 4.3 °C 1021.2 hPa Calm     65% 0 mm 0.0 W/m2 CLR
22:25 10.6 °C 4.3 °C 1021.2 hPa Calm     65% 0 mm 0.0 W/m2 CLR
22:30 10.6 °C 4.3 °C 1021.2 hPa Calm     65% 0 mm 0.0 W/m2 CLR
22:35 10.6 °C 4.3 °C 1021.2 hPa Calm     65% 0 mm 0.0 W/m2 CLR
22:40 10.6 °C 4.3 °C 1021.2 hPa Calm     65% 0 mm 0.0 W/m2 CLR
22:45 10.6 °C 4.3 °C 1021.2 hPa Calm     65% 0 mm 0.0 W/m2 CLR
22:50 10.6 °C 4.3 °C 1021.2 hPa Calm     65% 0 mm 0.0 W/m2 CLR
22:55 10.6 °C 4.3 °C 1021.2 hPa Calm     65% 0 mm 0.0 W/m2 CLR
23:00 10.6 °C 4.3 °C 1021.2 hPa Calm     65% 0 mm 0.0 W/m2 CLR
23:05 10 °C 4.3 °C 1021.2 hPa Calm     68% 0 mm 0.0 W/m2 CLR
23:10 10 °C 4.3 °C 1021.2 hPa Calm     68% 0 mm 0.0 W/m2 CLR
23:15 10 °C 4.3 °C 1021.2 hPa Calm     68% 0 mm 0.0 W/m2 CLR
23:20 10 °C 4.3 °C 1021.2 hPa Calm     68% 0 mm 0.0 W/m2 CLR
23:25 10 °C 4.3 °C 1021.2 hPa Calm     68% 0 mm 0.0 W/m2 CLR
23:30 10 °C 4.3 °C 1021.2 hPa Calm     68% 0 mm 0.0 W/m2 CLR
23:35 10 °C 4.3 °C 1021.2 hPa Calm     68% 0 mm 0.0 W/m2 CLR
23:40 10 °C 4.3 °C 1021.2 hPa Calm     68% 0 mm 0.0 W/m2 CLR
23:45 10 °C 4.3 °C 1021.2 hPa Calm     68% 0 mm 0.0 W/m2 CLR
23:50 10 °C 4.3 °C 1021.2 hPa Calm     68% 0 mm 0.0 W/m2 CLR
23:55 10 °C 4.3 °C 1021.2 hPa Calm     68% 0 mm 0.0 W/m2 CLR
Lake Mary, FL, USA
Compliments of Weather Underground - 1.75 mb